Time;durP1;ratioP1;P1;durP2;ratioP2;P2;SDS_P1;SDS_P2;PMS_P1;PMS_P2;Temp;Humidity;BMP_temperature;BMP_pressure;BME280_temperature;BME280_humidity;BME280_pressure;Samples;Min_cycle;Max_cycle;Signal;HPM_P1;HPM_P2
2022/11/10 00:01:15;;;;;;;1.00;0.80;;;24.70;61.90;;;;;;5075232;28;20439;-90
2022/11/10 00:03:42;;;;;;;1.30;0.90;;;24.90;62.10;;;;;;5075004;28;20470;-90
2022/11/10 00:06:09;;;;;;;1.07;0.73;;;24.70;61.90;;;;;;5075256;28;20465;-91
2022/11/10 00:08:36;;;;;;;2.00;0.80;;;24.70;61.90;;;;;;5075547;28;20522;-90
2022/11/10 00:11:06;;;;;;;2.23;0.90;;;24.70;61.90;;;;;;5074850;28;20438;-90
2022/11/10 00:13:34;;;;;;;1.00;0.77;;;24.70;61.80;;;;;;5075180;28;20910;-91
2022/11/10 00:18:47;;;;;;;1.20;0.80;;;24.70;61.80;;;;;;5075071;28;20415;-91
2022/11/10 00:21:15;;;;;;;1.33;1.00;;;24.70;61.90;;;;;;5074863;28;20435;-91
2022/11/10 00:23:43;;;;;;;2.07;0.90;;;24.70;61.90;;;;;;5075587;28;20545;-90
2022/11/10 00:26:17;;;;;;;1.00;0.70;;;24.70;61.90;;;;;;5074739;28;20453;-91
2022/11/10 00:28:44;;;;;;;1.37;0.90;;;24.70;61.80;;;;;;5075006;28;20453;-90
2022/11/10 00:31:12;;;;;;;1.10;0.90;;;24.80;62.00;;;;;;5082547;28;20960;-91
2022/11/10 00:33:40;;;;;;;1.10;0.80;;;24.70;61.90;;;;;;5074555;28;20989;-91
2022/11/10 00:36:08;;;;;;;1.67;0.80;;;24.70;61.90;;;;;;5074728;28;20445;-91
2022/11/10 00:38:35;;;;;;;1.00;0.70;;;24.70;61.80;;;;;;5074734;28;20511;-90
2022/11/10 00:41:02;;;;;;;1.50;1.00;;;24.70;61.80;;;;;;5077892;28;20439;-90
2022/11/10 00:43:31;;;;;;;1.20;0.93;;;24.60;61.70;;;;;;5075115;28;20447;-90
2022/11/10 00:45:57;;;;;;;1.17;0.90;;;24.70;61.80;;;;;;5078771;28;20495;-90
2022/11/10 00:48:25;;;;;;;1.23;0.97;;;24.70;61.80;;;;;;5098315;28;20457;-90
2022/11/10 00:50:52;;;;;;;1.30;0.90;;;24.70;62.70;;;;;;5098931;28;20481;-90
2022/11/10 00:53:19;;;;;;;1.20;0.90;;;24.60;61.60;;;;;;5098880;28;20479;-91
2022/11/10 00:55:46;;;;;;;1.40;1.00;;;24.70;61.80;;;;;;5081181;28;20438;-91
2022/11/10 00:58:13;;;;;;;1.40;0.80;;;24.60;61.60;;;;;;5079649;28;20545;-91
2022/11/10 01:00:41;;;;;;;1.23;1.00;;;24.60;61.60;;;;;;5085592;28;20941;-90
2022/11/10 01:03:08;;;;;;;1.20;0.90;;;24.70;61.80;;;;;;5064848;28;20955;-90
2022/11/10 01:05:36;;;;;;;1.30;1.00;;;24.70;61.70;;;;;;5054403;28;20496;-91
2022/11/10 01:08:03;;;;;;;1.10;0.80;;;24.80;61.90;;;;;;5054301;28;20506;-91
2022/11/10 01:10:30;;;;;;;1.00;0.70;;;24.60;61.70;;;;;;5054327;28;20455;-91
2022/11/10 01:12:57;;;;;;;1.20;0.90;;;24.60;61.60;;;;;;5054420;28;20546;-91
2022/11/10 01:15:24;;;;;;;1.17;0.90;;;24.70;62.60;;;;;;5053974;28;20443;-90
2022/11/10 01:17:54;;;;;;;1.13;0.90;;;24.60;61.60;;;;;;5053534;28;20546;-91
2022/11/10 01:20:23;;;;;;;1.00;0.90;;;24.60;61.60;;;;;;5063816;28;20465;-91
2022/11/10 01:22:49;;;;;;;1.13;0.83;;;24.60;61.60;;;;;;5073594;28;20454;-91
2022/11/10 01:25:16;;;;;;;1.60;0.80;;;24.60;61.60;;;;;;5073643;28;20468;-91
2022/11/10 01:27:43;;;;;;;1.30;1.00;;;24.60;61.60;;;;;;5073546;28;20536;-91
2022/11/10 01:30:11;;;;;;;1.20;0.90;;;24.60;61.60;;;;;;5074104;28;20453;-91
2022/11/10 01:32:38;;;;;;;1.20;0.90;;;24.60;61.60;;;;;;5073488;28;20439;-91
2022/11/10 01:35:07;;;;;;;1.00;0.80;;;24.60;61.60;;;;;;5071392;28;20557;-90
2022/11/10 01:37:34;;;;;;;1.27;0.83;;;24.60;61.60;;;;;;5053263;28;20450;-91
2022/11/10 01:40:01;;;;;;;1.10;0.70;;;24.60;61.60;;;;;;5053610;28;20799;-90
2022/11/10 01:42:42;;;;;;;1.00;0.77;;;24.60;61.60;;;;;;5053269;28;20938;-90
2022/11/10 01:45:53;;;;;;;1.10;0.80;;;24.60;61.60;;;;;;5053346;28;20488;-91
2022/11/10 01:48:29;;;;;;;1.30;0.80;;;24.60;61.60;;;;;;5053190;28;20488;-91
2022/11/10 01:51:08;;;;;;;1.50;1.00;;;24.50;62.40;;;;;;5059859;28;21012;-91
2022/11/10 01:53:40;;;;;;;1.20;0.90;;;24.60;61.60;;;;;;5073182;28;20938;-90
2022/11/10 01:56:10;;;;;;;1.00;0.80;;;24.50;61.50;;;;;;5073708;28;20457;-91
2022/11/10 01:58:43;;;;;;;1.93;0.90;;;24.50;61.50;;;;;;5073419;28;20443;-91
2022/11/10 02:01:10;;;;;;;1.17;1.03;;;24.50;61.50;;;;;;5073242;28;20921;-90
2022/11/10 02:03:43;;;;;;;1.30;0.80;;;24.50;61.50;;;;;;5073094;28;20477;-91
2022/11/10 02:06:17;;;;;;;1.60;1.00;;;24.50;61.50;;;;;;5074652;28;20481;-91
2022/11/10 02:08:45;;;;;;;1.50;0.90;;;24.50;61.50;;;;;;5073504;28;20921;-90
2022/11/10 02:11:13;;;;;;;1.00;0.73;;;24.50;61.50;;;;;;5073097;28;20476;-91
2022/11/10 02:13:40;;;;;;;1.10;0.80;;;24.50;61.50;;;;;;5073776;28;20918;-91
2022/11/10 02:16:08;;;;;;;1.07;0.80;;;24.50;61.50;;;;;;5076891;28;20446;-91
2022/11/10 02:18:36;;;;;;;2.00;0.90;;;24.50;61.50;;;;;;5076989;28;20452;-91
2022/11/10 02:21:06;;;;;;;1.30;0.80;;;24.50;61.50;;;;;;5076874;28;20446;-91
2022/11/10 02:23:47;;;;;;;1.00;0.80;;;24.50;61.50;;;;;;5077345;28;20438;-91
2022/11/10 02:26:17;;;;;;;1.70;1.00;;;24.50;61.50;;;;;;5076915;28;21050;-91
2022/11/10 02:28:44;;;;;;;1.60;1.10;;;24.70;61.80;;;;;;5076596;28;20442;-90
2022/11/10 02:31:11;;;;;;;1.20;0.70;;;24.50;61.50;;;;;;5076711;28;20521;-90
2022/11/10 02:33:38;;;;;;;1.10;0.83;;;24.50;61.50;;;;;;5076568;28;20460;-91
2022/11/10 02:36:07;;;;;;;1.13;0.90;;;24.50;61.50;;;;;;5076980;28;20457;-91
2022/11/10 02:38:34;;;;;;;1.50;0.80;;;24.50;61.50;;;;;;5076774;28;20477;-91
2022/11/10 02:41:01;;;;;;;1.10;0.80;;;24.50;61.50;;;;;;5076339;28;20945;-91
2022/11/10 02:43:29;;;;;;;1.23;0.80;;;24.50;61.60;;;;;;5076134;28;20457;-91
2022/11/10 02:45:55;;;;;;;1.00;0.73;;;24.50;61.50;;;;;;5076221;28;20497;-90
2022/11/10 02:48:22;;;;;;;2.17;1.23;;;24.50;61.50;;;;;;5076801;28;20450;-90
2022/11/10 02:50:49;;;;;;;1.37;0.80;;;24.50;61.50;;;;;;5076202;28;20494;-90
2022/11/10 02:53:18;;;;;;;1.00;0.80;;;24.40;61.40;;;;;;5076701;28;20535;-91
2022/11/10 02:55:45;;;;;;;1.33;0.77;;;24.50;61.50;;;;;;5076144;28;20526;-90
2022/11/10 02:58:12;;;;;;;1.47;0.90;;;24.40;61.40;;;;;;5076479;28;20467;-91
2022/11/10 03:00:39;;;;;;;1.87;0.90;;;24.50;61.50;;;;;;5076477;28;20561;-90
2022/11/10 03:03:06;;;;;;;1.50;0.80;;;24.40;61.40;;;;;;5076019;28;20442;-90
2022/11/10 03:05:34;;;;;;;1.27;0.90;;;24.50;61.50;;;;;;5076215;28;20581;-90
2022/11/10 03:08:02;;;;;;;1.00;0.90;;;24.50;61.40;;;;;;5076155;28;20442;-90
2022/11/10 03:10:31;;;;;;;1.17;1.00;;;24.50;61.50;;;;;;5076228;28;20447;-90
2022/11/10 03:13:00;;;;;;;1.00;0.70;;;24.50;61.50;;;;;;5075858;28;20583;-91
2022/11/10 03:15:28;;;;;;;1.10;0.93;;;24.40;61.40;;;;;;5076015;28;20435;-90
2022/11/10 03:17:56;;;;;;;1.00;0.80;;;24.50;61.50;;;;;;5076070;28;20443;-90
2022/11/10 03:20:23;;;;;;;1.00;0.77;;;24.40;61.50;;;;;;5076292;28;20504;-91
2022/11/10 03:22:50;;;;;;;1.17;0.70;;;24.60;61.70;;;;;;5075960;28;20450;-90
2022/11/10 03:25:16;;;;;;;1.87;1.07;;;24.60;61.70;;;;;;5075943;28;20584;-90
2022/11/10 03:27:45;;;;;;;1.03;0.70;;;24.40;61.40;;;;;;5075168;28;20530;-91
2022/11/10 03:30:12;;;;;;;1.10;0.80;;;24.50;61.50;;;;;;5076417;28;20451;-90
2022/11/10 03:32:39;;;;;;;1.40;1.10;;;24.40;61.40;;;;;;5075970;28;20443;-90
2022/11/10 03:35:06;;;;;;;1.30;0.83;;;24.40;61.40;;;;;;5076224;28;20604;-90
2022/11/10 03:37:33;;;;;;;1.10;0.90;;;24.40;61.40;;;;;;5076641;28;21082;-90
2022/11/10 03:40:00;;;;;;;1.13;0.73;;;24.40;61.40;;;;;;5077559;28;20607;-91
2022/11/10 03:42:27;;;;;;;0.97;0.70;;;24.40;61.40;;;;;;5083895;28;20454;-91
2022/11/10 03:44:55;;;;;;;1.00;0.80;;;24.40;61.40;;;;;;5075120;28;20492;-90
2022/11/10 03:47:22;;;;;;;1.20;1.00;;;24.40;61.40;;;;;;5074887;28;20445;-91
2022/11/10 03:49:48;;;;;;;1.20;0.90;;;24.40;61.40;;;;;;5074974;28;20450;-91
2022/11/10 03:52:15;;;;;;;1.40;0.97;;;24.40;61.40;;;;;;5078764;28;20530;-90
2022/11/10 03:54:42;;;;;;;1.57;1.20;;;24.40;61.50;;;;;;5074829;28;20438;-90
2022/11/10 03:57:09;;;;;;;1.00;0.80;;;24.40;61.40;;;;;;5074748;28;20583;-90
2022/11/10 03:59:36;;;;;;;1.30;0.70;;;24.40;61.40;;;;;;5074851;28;20446;-90
2022/11/10 04:02:04;;;;;;;1.00;0.70;;;24.40;61.40;;;;;;5075044;28;20584;-90
2022/11/10 04:09:59;;;;;;;1.00;0.80;;;24.40;61.40;;;;;;5074891;28;20419;-91
2022/11/10 04:18:19;;;;;;;1.30;0.90;;;24.40;61.50;;;;;;5074696;28;20462;-91
2022/11/10 04:20:45;;;;;;;1.20;0.80;;;24.40;61.50;;;;;;5074347;28;20430;-90
2022/11/10 04:23:27;;;;;;;1.40;0.80;;;24.40;61.50;;;;;;5074581;28;20439;-91
2022/11/10 04:28:43;;;;;;;1.10;0.80;;;24.30;61.40;;;;;;5074180;28;20915;-90
2022/11/10 04:31:11;;;;;;;1.00;0.80;;;24.30;61.40;;;;;;5074654;28;20495;-90
2022/11/10 04:33:40;;;;;;;1.23;0.90;;;24.30;61.30;;;;;;5074050;28;20466;-91
2022/11/10 04:36:09;;;;;;;1.00;0.73;;;24.40;61.40;;;;;;5074135;28;20529;-91
2022/11/10 04:38:36;;;;;;;1.20;0.83;;;24.40;61.40;;;;;;5074301;28;20531;-91
2022/11/10 04:41:02;;;;;;;1.00;0.77;;;24.40;61.40;;;;;;5073813;28;20451;-90
2022/11/10 04:43:30;;;;;;;0.97;0.83;;;24.40;61.40;;;;;;5074347;28;20448;-91
2022/11/10 04:45:57;;;;;;;1.10;0.80;;;24.40;61.40;;;;;;5074232;28;20830;-91
2022/11/10 04:48:25;;;;;;;1.00;0.80;;;24.40;61.40;;;;;;5073976;28;20450;-91
2022/11/10 04:50:53;;;;;;;0.97;0.70;;;24.40;61.30;;;;;;5074238;28;20503;-90
2022/11/10 04:53:21;;;;;;;1.10;0.80;;;24.40;61.40;;;;;;5073855;28;20437;-90
2022/11/10 04:55:49;;;;;;;1.10;1.00;;;24.40;61.40;;;;;;5073832;28;20524;-90
2022/11/10 04:58:16;;;;;;;0.90;0.70;;;24.40;61.40;;;;;;5073756;28;20955;-90
2022/11/10 05:00:43;;;;;;;1.20;0.70;;;24.40;61.40;;;;;;5073823;28;20538;-90
2022/11/10 05:03:11;;;;;;;1.00;0.90;;;24.50;61.40;;;;;;5074465;28;20982;-90
2022/11/10 05:05:38;;;;;;;1.10;0.80;;;24.40;61.30;;;;;;5073799;28;20470;-90
2022/11/10 05:08:07;;;;;;;1.10;0.83;;;24.40;61.40;;;;;;5074288;28;20779;-91
2022/11/10 05:10:35;;;;;;;1.00;0.80;;;24.40;61.40;;;;;;5074212;28;20927;-91
2022/11/10 05:13:03;;;;;;;1.10;0.80;;;24.30;61.20;;;;;;5074108;28;20455;-90
2022/11/10 05:15:31;;;;;;;1.00;0.70;;;24.30;61.20;;;;;;5074042;28;20456;-90
2022/11/10 05:17:58;;;;;;;1.10;0.83;;;24.30;61.20;;;;;;5073884;28;20446;-90
2022/11/10 05:20:26;;;;;;;1.23;1.10;;;24.30;61.20;;;;;;5074109;28;20538;-90
2022/11/10 05:25:40;;;;;;;2.00;0.70;;;24.30;61.20;;;;;;5074050;28;20546;-91
2022/11/10 05:28:11;;;;;;;1.20;0.80;;;24.30;61.30;;;;;;5073648;28;20877;-90
2022/11/10 05:30:39;;;;;;;1.07;0.80;;;24.30;61.30;;;;;;5073894;28;20451;-91
2022/11/10 05:33:06;;;;;;;2.17;0.93;;;24.30;61.30;;;;;;5091128;28;20447;-90
2022/11/10 05:35:34;;;;;;;1.00;0.90;;;24.30;61.30;;;;;;5098582;28;20418;-89
2022/11/10 05:38:01;;;;;;;1.00;0.70;;;24.30;62.10;;;;;;5098389;28;20506;-90
2022/11/10 05:40:28;;;;;;;1.53;0.80;;;24.40;61.40;;;;;;5086729;28;20439;-91
2022/11/10 05:42:57;;;;;;;1.00;0.70;;;24.30;61.20;;;;;;5076077;28;20946;-90
2022/11/10 05:45:25;;;;;;;1.10;0.80;;;24.20;61.10;;;;;;5075077;28;20434;-90
2022/11/10 05:47:53;;;;;;;1.00;0.80;;;24.30;61.20;;;;;;5074097;28;20588;-90
2022/11/10 05:50:21;;;;;;;1.07;0.90;;;24.30;61.30;;;;;;5077104;28;20451;-89
2022/11/10 05:52:50;;;;;;;1.50;0.70;;;24.30;61.30;;;;;;5078807;28;20442;-89
2022/11/10 05:55:19;;;;;;;1.00;0.80;;;24.30;61.30;;;;;;5077408;28;21003;-90
2022/11/10 05:57:47;;;;;;;1.00;0.70;;;24.40;61.40;;;;;;5077381;28;20517;-90
2022/11/10 06:00:18;;;;;;;0.93;0.73;;;24.30;61.30;;;;;;5077464;28;20805;-90
2022/11/10 06:02:45;;;;;;;1.10;0.93;;;24.30;61.20;;;;;;5077435;28;20796;-90
2022/11/10 06:05:11;;;;;;;1.00;0.73;;;24.20;61.20;;;;;;5076721;28;20541;-89
2022/11/10 06:07:39;;;;;;;1.20;0.73;;;24.20;61.10;;;;;;5077017;28;20457;-89
2022/11/10 06:10:06;;;;;;;1.00;0.70;;;24.20;61.10;;;;;;5073916;28;20818;-89
2022/11/10 06:12:37;;;;;;;1.00;0.70;;;24.20;61.10;;;;;;5045986;28;20439;-89
2022/11/10 06:16:01;;;;;;;1.10;0.80;;;24.20;61.10;;;;;;5059980;28;20431;-91
2022/11/10 06:18:29;;;;;;;1.30;0.80;;;24.30;61.10;;;;;;5058482;28;20521;-89
2022/11/10 06:20:56;;;;;;;1.07;0.80;;;24.20;61.20;;;;;;5070875;28;20478;-89
2022/11/10 06:23:23;;;;;;;1.13;0.80;;;24.20;61.10;;;;;;5074099;28;20478;-88
2022/11/10 06:25:50;;;;;;;1.20;0.93;;;24.40;61.40;;;;;;5059804;28;20994;-88
2022/11/10 06:28:16;;;;;;;0.90;0.70;;;24.20;61.30;;;;;;5056873;28;20436;-89
2022/11/10 06:30:43;;;;;;;1.10;0.87;;;24.40;62.10;;;;;;5036421;28;20450;-90
2022/11/10 06:33:10;;;;;;;1.10;0.80;;;24.20;61.40;;;;;;5036552;28;20449;-90
2022/11/10 06:35:38;;;;;;;2.20;0.77;;;24.20;61.60;;;;;;5043465;28;20449;-91
2022/11/10 06:38:07;;;;;;;1.10;0.80;;;24.20;62.50;;;;;;5076826;28;20449;-91
2022/11/10 06:40:34;;;;;;;1.00;0.70;;;24.20;61.70;;;;;;5076624;28;20450;-89
2022/11/10 06:43:01;;;;;;;1.20;0.90;;;24.20;61.70;;;;;;5080145;28;20446;-92
2022/11/10 06:45:29;;;;;;;2.30;1.10;;;24.20;61.70;;;;;;5076558;28;20808;-91
2022/11/10 06:48:03;;;;;;;2.50;0.80;;;24.20;61.70;;;;;;5076423;28;20455;-91
2022/11/10 06:50:30;;;;;;;3.77;1.00;;;24.50;62.10;;;;;;5075933;28;20482;-90
2022/11/10 06:52:59;;;;;;;1.10;0.80;;;24.20;61.80;;;;;;5076516;28;20537;-92
2022/11/10 06:55:29;;;;;;;1.30;0.90;;;24.30;62.00;;;;;;5075842;28;20445;-92
2022/11/10 06:57:56;;;;;;;1.17;0.70;;;24.20;61.90;;;;;;5076090;28;20444;-92
2022/11/10 07:00:24;;;;;;;1.20;0.93;;;24.20;61.90;;;;;;5076000;28;20788;-91
2022/11/10 07:02:59;;;;;;;1.10;0.80;;;24.20;62.00;;;;;;5068124;28;20439;-91
2022/11/10 07:05:27;;;;;;;1.03;0.70;;;24.30;62.10;;;;;;5056129;28;20435;-90
2022/11/10 07:07:54;;;;;;;1.20;0.90;;;24.20;62.10;;;;;;5056040;28;20440;-90
2022/11/10 07:10:22;;;;;;;1.27;0.80;;;24.20;62.20;;;;;;5056061;28;20502;-92
2022/11/10 07:12:55;;;;;;;1.77;0.80;;;24.40;62.50;;;;;;5056142;28;20455;-86
2022/11/10 07:15:22;;;;;;;1.17;0.80;;;24.20;62.30;;;;;;5055653;28;20581;-90
2022/11/10 07:17:49;;;;;;;1.73;0.80;;;24.20;62.30;;;;;;5111390;23;20898;-93
2022/11/10 07:20:16;;;;;;;1.83;0.80;;;24.20;62.40;;;;;;5117909;28;20505;-88
2022/11/10 07:22:43;;;;;;;1.20;0.80;;;24.20;62.30;;;;;;5116369;28;20450;-91
2022/11/10 07:25:11;;;;;;;1.00;0.80;;;24.20;62.10;;;;;;5116302;28;20938;-90
2022/11/10 07:27:39;;;;;;;1.03;0.80;;;24.20;62.00;;;;;;5117036;28;20567;-89
2022/11/10 07:30:07;;;;;;;1.70;0.97;;;24.40;62.30;;;;;;5130594;27;20933;-89
2022/11/10 07:32:34;;;;;;;1.07;0.83;;;24.20;62.20;;;;;;5136639;27;20937;-90
2022/11/10 07:35:00;;;;;;;1.37;0.90;;;24.20;62.20;;;;;;5145570;27;20426;-89
2022/11/10 07:37:27;;;;;;;1.20;0.90;;;24.40;62.50;;;;;;5137922;27;20519;-89
2022/11/10 07:39:54;;;;;;;1.57;0.90;;;24.20;62.20;;;;;;5136226;27;20443;-89
2022/11/10 07:42:21;;;;;;;1.30;0.80;;;24.20;62.40;;;;;;5136764;27;20454;-83
2022/11/10 07:44:49;;;;;;;1.20;0.90;;;24.20;62.40;;;;;;5117803;27;20432;-87
2022/11/10 07:47:16;;;;;;;1.40;0.70;;;24.20;62.10;;;;;;5114447;28;20837;-87
2022/11/10 07:49:44;;;;;;;1.30;0.80;;;24.20;62.30;;;;;;5114402;28;20444;-86
2022/11/10 07:52:11;;;;;;;1.03;0.83;;;24.20;62.20;;;;;;5111729;28;20472;-87
2022/11/10 07:54:38;;;;;;;2.20;1.00;;;24.20;62.20;;;;;;5115223;28;20787;-85
2022/11/10 07:57:05;;;;;;;1.97;0.90;;;24.30;62.20;;;;;;5115146;28;20440;-85
2022/11/10 07:59:31;;;;;;;1.10;0.80;;;24.30;62.30;;;;;;5116257;28;20441;-88
2022/11/10 08:01:59;;;;;;;1.40;0.80;;;24.30;62.30;;;;;;5116381;28;20534;-91
2022/11/10 08:04:26;;;;;;;1.37;1.03;;;24.40;62.30;;;;;;5115909;28;20986;-90
2022/11/10 08:06:53;;;;;;;1.60;0.83;;;24.30;62.00;;;;;;5115745;28;20477;-91
2022/11/10 08:09:20;;;;;;;1.40;1.03;;;24.40;62.10;;;;;;5115592;28;20443;-91
2022/11/10 08:11:47;;;;;;;1.10;0.90;;;24.40;62.10;;;;;;5115008;28;21043;-87
2022/11/10 08:14:14;;;;;;;1.23;0.80;;;24.40;62.10;;;;;;5116161;28;20509;-91
2022/11/10 08:16:41;;;;;;;1.03;0.73;;;24.40;62.10;;;;;;5117735;28;20481;-91
2022/11/10 08:19:09;;;;;;;2.70;1.10;;;24.40;62.10;;;;;;5115753;28;20451;-91
2022/11/10 08:21:36;;;;;;;1.07;0.80;;;24.40;61.90;;;;;;5115229;28;20443;-91
2022/11/10 08:24:03;;;;;;;1.10;0.80;;;24.40;61.90;;;;;;5115494;28;20444;-92
2022/11/10 08:26:30;;;;;;;1.40;0.90;;;24.50;61.80;;;;;;5115411;28;20491;-92
2022/11/10 08:28:56;;;;;;;2.23;1.00;;;24.50;61.40;;;;;;5115343;28;20458;-89
2022/11/10 08:31:23;;;;;;;1.10;0.80;;;24.50;61.30;;;;;;5115394;28;20528;-89
2022/11/10 08:33:50;;;;;;;1.30;0.90;;;24.50;61.30;;;;;;5116046;28;20453;-91
2022/11/10 08:36:19;;;;;;;1.70;0.90;;;24.60;61.40;;;;;;5114971;28;20439;-92
2022/11/10 08:38:46;;;;;;;1.10;0.70;;;24.70;61.50;;;;;;5115165;28;20440;-90
2022/11/10 08:41:12;;;;;;;2.00;1.03;;;24.70;61.40;;;;;;5114953;28;20440;-93
2022/11/10 08:43:39;;;;;;;1.17;0.80;;;24.70;61.40;;;;;;5115268;28;20578;-90
2022/11/10 08:46:06;;;;;;;1.17;0.90;;;24.80;61.30;;;;;;5114922;28;20578;-89
2022/11/10 08:48:33;;;;;;;1.20;0.90;;;24.90;61.20;;;;;;5115045;28;20580;-90
2022/11/10 08:51:00;;;;;;;3.73;1.00;;;25.00;60.80;;;;;;5114924;28;20498;-91
2022/11/10 08:53:29;;;;;;;1.93;1.10;;;25.10;60.70;;;;;;5115017;28;20908;-89
2022/11/10 08:55:58;;;;;;;1.50;1.00;;;25.20;61.00;;;;;;5114856;28;20438;-89
2022/11/10 08:58:25;;;;;;;3.53;1.37;;;25.20;60.70;;;;;;5115152;28;20940;-90
2022/11/10 09:00:53;;;;;;;1.80;1.40;;;25.30;60.80;;;;;;5116279;28;20448;-89
2022/11/10 09:03:21;;;;;;;5.00;1.73;;;25.40;60.70;;;;;;5114451;28;20469;-89
2022/11/10 09:05:49;;;;;;;2.10;0.90;;;25.50;60.90;;;;;;5115177;28;20460;-90
2022/11/10 09:08:16;;;;;;;2.30;1.13;;;25.70;60.70;;;;;;5118512;28;20486;-90
2022/11/10 09:10:46;;;;;;;1.30;0.90;;;26.00;60.10;;;;;;5116435;28;20477;-91
2022/11/10 09:13:15;;;;;;;2.13;1.17;;;26.20;59.60;;;;;;5116274;28;20943;-90
2022/11/10 09:15:43;;;;;;;2.63;1.20;;;26.30;59.30;;;;;;5116792;28;20435;-90
2022/11/10 09:18:12;;;;;;;1.50;1.20;;;26.40;59.00;;;;;;5116319;28;20463;-90
2022/11/10 09:20:40;;;;;;;2.90;0.90;;;26.70;59.00;;;;;;5115632;28;20447;-91
2022/11/10 09:23:08;;;;;;;1.30;1.00;;;26.80;58.50;;;;;;5118956;28;20447;-89
2022/11/10 09:25:35;;;;;;;1.53;1.10;;;27.10;58.20;;;;;;5123396;27;20438;-87
2022/11/10 09:28:04;;;;;;;2.57;1.00;;;27.30;57.40;;;;;;5120500;28;20482;-86
2022/11/10 09:30:32;;;;;;;2.60;1.00;;;27.60;57.10;;;;;;5120653;28;20479;-91
2022/11/10 09:33:01;;;;;;;1.77;0.80;;;27.80;56.90;;;;;;5120476;28;20470;-91
2022/11/10 09:35:28;;;;;;;3.30;1.10;;;28.00;56.70;;;;;;5121039;28;20949;-91
2022/11/10 09:37:55;;;;;;;1.53;1.17;;;28.20;56.70;;;;;;5121346;28;20432;-91
2022/11/10 09:40:24;;;;;;;3.43;1.13;;;28.40;56.40;;;;;;5121018;28;20432;-91
2022/11/10 09:42:55;;;;;;;3.20;1.17;;;28.60;56.20;;;;;;5121145;28;20439;-90
2022/11/10 09:45:28;;;;;;;2.37;1.20;;;28.90;55.80;;;;;;5121430;28;20491;-90
2022/11/10 09:48:01;;;;;;;1.67;1.20;;;29.10;55.50;;;;;;5121035;28;20560;-91
2022/11/10 09:50:36;;;;;;;1.43;0.90;;;29.30;55.30;;;;;;5120659;28;20438;-91
2022/11/10 09:53:03;;;;;;;2.43;1.30;;;29.50;55.10;;;;;;5120949;28;20444;-91
2022/11/10 09:55:37;;;;;;;1.77;1.20;;;29.70;54.90;;;;;;5120671;28;20595;-90
2022/11/10 09:58:04;;;;;;;4.50;0.93;;;29.80;54.70;;;;;;5120795;28;20453;-91
2022/11/10 10:00:35;;;;;;;2.33;1.17;;;29.90;54.40;;;;;;5120495;28;20450;-90
2022/11/10 10:03:03;;;;;;;1.80;0.93;;;30.10;54.60;;;;;;5120139;28;20550;-91
2022/11/10 10:06:01;;;;;;;1.83;1.03;;;30.20;54.30;;;;;;5120467;28;20439;-91
2022/11/10 10:08:38;;;;;;;1.50;1.00;;;30.40;54.20;;;;;;5104135;28;20488;-91
2022/11/10 10:11:11;;;;;;;2.40;1.07;;;30.30;54.30;;;;;;5120450;28;20918;-91
2022/11/10 10:14:01;;;;;;;1.50;1.13;;;30.20;54.50;;;;;;5120650;28;20429;-91
2022/11/10 10:16:36;;;;;;;1.53;1.00;;;29.90;54.90;;;;;;5120796;28;20475;-91
2022/11/10 10:19:15;;;;;;;1.10;1.00;;;29.60;55.50;;;;;;5120861;28;20438;-91
2022/11/10 10:21:52;;;;;;;1.73;1.10;;;29.30;55.80;;;;;;5128572;27;20407;-90
2022/11/10 10:24:21;;;;;;;1.20;0.97;;;29.10;56.20;;;;;;5145566;27;20449;-90
2022/11/10 10:26:51;;;;;;;1.77;1.20;;;28.80;56.60;;;;;;5145504;28;20482;-90
2022/11/10 10:29:22;;;;;;;1.63;0.93;;;28.60;56.90;;;;;;5137668;28;20537;-90
2022/11/10 10:31:52;;;;;;;1.90;1.20;;;28.40;57.30;;;;;;5120674;28;20429;-89
2022/11/10 10:34:21;;;;;;;1.57;1.00;;;28.30;57.60;;;;;;5118588;28;20552;-90
2022/11/10 10:36:49;;;;;;;3.27;1.30;;;28.10;57.90;;;;;;5117227;28;20451;-91
2022/11/10 10:39:21;;;;;;;1.10;0.90;;;28.00;58.10;;;;;;5117301;28;20442;-91
2022/11/10 10:41:48;;;;;;;1.23;1.00;;;27.80;58.30;;;;;;5117314;28;20524;-90
2022/11/10 10:44:16;;;;;;;1.30;1.00;;;27.70;58.50;;;;;;5117424;28;20441;-90
2022/11/10 10:46:46;;;;;;;2.33;1.00;;;27.70;58.80;;;;;;5117109;28;20448;-90
2022/11/10 10:49:18;;;;;;;3.80;1.37;;;27.60;58.90;;;;;;5117155;28;20444;-91
2022/11/10 10:51:45;;;;;;;2.40;1.03;;;27.50;59.10;;;;;;5117057;28;20432;-90
2022/11/10 10:54:24;;;;;;;3.20;1.63;;;27.50;59.30;;;;;;5117378;28;20454;-90
2022/11/10 10:57:01;;;;;;;1.43;1.20;;;27.40;59.40;;;;;;5117224;28;20440;-90
2022/11/10 10:59:28;;;;;;;1.53;1.07;;;27.40;59.50;;;;;;5118741;28;20431;-91
2022/11/10 11:01:55;;;;;;;1.30;1.20;;;27.30;59.60;;;;;;5117529;28;20432;-90
2022/11/10 11:04:30;;;;;;;3.77;1.63;;;27.30;59.70;;;;;;5117698;28;20994;-90
2022/11/10 11:06:58;;;;;;;1.50;1.00;;;27.30;59.70;;;;;;5117088;28;20427;-90
2022/11/10 11:09:27;;;;;;;1.50;1.23;;;27.20;59.80;;;;;;5116315;28;20949;-90
2022/11/10 11:12:01;;;;;;;1.50;1.23;;;27.20;59.90;;;;;;5116960;28;20432;-91
2022/11/10 11:14:29;;;;;;;1.40;1.30;;;27.20;60.00;;;;;;5116864;28;20427;-90
2022/11/10 11:16:58;;;;;;;1.30;1.10;;;27.10;60.00;;;;;;5116662;28;20470;-91
2022/11/10 11:19:28;;;;;;;1.70;1.10;;;27.10;60.20;;;;;;5116993;28;20438;-90
2022/11/10 11:22:36;;;;;;;1.47;1.20;;;27.00;60.30;;;;;;5117095;28;20429;-91
2022/11/10 11:25:14;;;;;;;1.47;0.90;;;27.00;60.40;;;;;;5054168;28;20456;-91
2022/11/10 11:27:49;;;;;;;1.97;1.20;;;26.80;60.60;;;;;;5112216;28;20487;-90
2022/11/10 11:30:18;;;;;;;1.30;1.00;;;26.80;60.80;;;;;;5117027;28;20431;-91
2022/11/10 11:33:11;;;;;;;2.00;1.30;;;26.80;60.80;;;;;;5117572;28;20943;-90
2022/11/10 11:35:46;;;;;;;1.43;1.00;;;26.80;60.80;;;;;;5116587;28;20458;-90
2022/11/10 11:38:15;;;;;;;1.80;1.27;;;26.70;61.00;;;;;;5116283;28;20445;-90
2022/11/10 11:40:48;;;;;;;1.40;0.93;;;26.90;61.20;;;;;;5120480;28;20439;-91
2022/11/10 11:43:34;;;;;;;2.80;1.20;;;26.80;61.10;;;;;;5117441;28;20440;-90
2022/11/10 11:46:11;;;;;;;2.20;1.07;;;26.70;61.10;;;;;;5117411;28;20442;-90
2022/11/10 11:48:49;;;;;;;1.73;1.10;;;26.60;61.10;;;;;;5127875;28;20494;-91
2022/11/10 11:51:23;;;;;;;1.53;1.20;;;26.60;61.20;;;;;;5124310;28;20433;-91
2022/11/10 11:54:12;;;;;;;3.00;1.00;;;26.60;61.30;;;;;;5116162;28;20432;-91
2022/11/10 11:56:42;;;;;;;1.40;1.20;;;26.50;61.20;;;;;;5112687;28;20443;-91
2022/11/10 11:59:20;;;;;;;1.30;0.97;;;26.50;61.30;;;;;;5115473;28;20917;-92
2022/11/10 12:02:09;;;;;;;2.47;1.30;;;26.50;61.30;;;;;;5115744;28;20519;-90
2022/11/10 12:04:52;;;;;;;1.30;1.07;;;26.50;61.40;;;;;;5116960;28;20437;-90
2022/11/10 12:07:41;;;;;;;2.40;1.20;;;26.40;61.40;;;;;;5118067;28;20470;-91
2022/11/10 12:10:22;;;;;;;2.53;1.03;;;26.40;61.50;;;;;;5117168;28;20435;-91
2022/11/10 12:13:15;;;;;;;1.93;1.10;;;26.40;61.50;;;;;;5115813;28;20438;-91
2022/11/10 12:15:49;;;;;;;1.57;1.20;;;26.40;61.50;;;;;;5117978;28;20454;-91
2022/11/10 12:18:30;;;;;;;1.63;1.10;;;26.30;61.50;;;;;;5114699;28;21047;-91
2022/11/10 12:21:19;;;;;;;1.50;1.40;;;26.30;61.50;;;;;;5115008;28;20435;-91
2022/11/10 12:24:15;;;;;;;1.73;1.00;;;26.30;61.70;;;;;;5115085;28;20552;-91
2022/11/10 12:26:51;;;;;;;1.93;1.10;;;26.20;61.70;;;;;;5114868;28;20517;-91
2022/11/10 12:29:25;;;;;;;1.50;1.10;;;26.20;61.80;;;;;;5114745;28;20984;-91
2022/11/10 12:31:57;;;;;;;1.70;1.03;;;26.20;61.70;;;;;;5115149;28;20429;-91
2022/11/10 12:34:33;;;;;;;1.63;1.13;;;26.20;61.70;;;;;;5115008;28;20957;-91
2022/11/10 12:37:05;;;;;;;2.63;1.30;;;26.20;61.70;;;;;;5114846;28;20961;-91
2022/11/10 12:39:41;;;;;;;1.37;0.90;;;26.20;61.60;;;;;;5116272;28;20458;-92
2022/11/10 12:42:14;;;;;;;2.27;1.40;;;26.20;61.60;;;;;;5114496;28;20925;-91
2022/11/10 12:44:57;;;;;;;1.40;1.10;;;26.20;61.60;;;;;;5114574;28;20446;-90
2022/11/10 12:47:28;;;;;;;1.57;1.07;;;26.30;62.40;;;;;;5114444;28;20426;-91
2022/11/10 12:50:03;;;;;;;1.83;1.00;;;26.20;61.60;;;;;;5114340;28;20446;-91
2022/11/10 12:52:35;;;;;;;2.47;1.07;;;26.30;61.60;;;;;;5114546;28;20924;-91
2022/11/10 12:55:04;;;;;;;1.20;0.90;;;26.20;61.60;;;;;;5114729;28;20426;-91
2022/11/10 12:57:33;;;;;;;1.53;1.20;;;26.30;61.70;;;;;;5114177;28;20934;-91
2022/11/10 13:00:02;;;;;;;1.83;1.10;;;26.20;61.70;;;;;;5114560;28;20952;-91
2022/11/10 13:02:33;;;;;;;2.43;1.30;;;26.20;61.70;;;;;;5114502;28;20829;-91
2022/11/10 13:05:17;;;;;;;1.37;1.10;;;26.20;61.70;;;;;;5114555;28;20468;-91
2022/11/10 13:07:47;;;;;;;1.60;0.90;;;26.20;61.70;;;;;;5114074;28;20899;-91
2022/11/10 13:10:25;;;;;;;1.43;1.10;;;26.20;61.70;;;;;;5114382;28;20496;-92
2022/11/10 13:13:00;;;;;;;1.53;1.00;;;26.20;61.70;;;;;;5114497;28;20464;-92
2022/11/10 13:15:46;;;;;;;1.30;1.10;;;26.20;61.70;;;;;;5114279;28;20576;-91
2022/11/10 13:18:23;;;;;;;1.43;1.00;;;26.20;61.60;;;;;;5113998;28;20557;-90
2022/11/10 13:20:52;;;;;;;1.30;0.87;;;26.20;61.70;;;;;;5114885;28;20430;-91
2022/11/10 13:23:27;;;;;;;1.20;0.97;;;26.20;61.70;;;;;;5114573;28;20446;-92